Pagrindinis puslapis
METAR-TAF:

METAR-TAF

Oro uostai :

Kosraė, Mikronezija

platuma: 05-21N, ilguma: 162-57E, Aukštis: 3 m

Dabartinis oras

Ataskaita buvo paskelbta 3 valandos ir 1 minutes, ne 02:50 UTC
Vėjas 11 kt iš Rytų/Šiaurės Rytų
Temperatūra 31°C
Drėgmė 71%
Slėgis 1005 hPa
Matomumas: 16.1 km
Išsisklaidę debesys ne aukštis 2000 ft
Išsisklaidę debesys ne aukštis 13000 ft
Su prošvaistėmis ne aukštis 30000 ft

METAR: PTSA 110250Z 07011KT 10SM SCT020 SCT130 BKN300 31/25 A2967

Laikas: 16:51 (05:51 UTC)

Prognozė

Ataskaita buvo paskelbta 6 valandos ir 29 minutes, ne 23:22 UTC
Prognozė galioja nuo 11 metu 00 UTC su 11 metu 24 UTC
Vėjas 10 kt iš Rytų/Pietryčių
Matomumas: 10 km
Mažai debesys ne aukštis 2000 ft
Išsisklaidę debesys ne aukštis 14000 ft
Liūtis kaimynystėje

TAF: PTSA 102322Z 1100/1124 11010KT P6SM VCSH FEW020 SCT140

Orai ataskaitas ir orų prognozės (METAR, TAF).

turimą stotys yra geltonos ir raudonos taškus žemėlapyje.

Perkelti pele per norėdami pamatyti stoties vardą.

Tada spustelėkite, norėdami matyti oro stebėjimo ir prognozės.

Norėdami pakeisti žemėlapį: spustelėkite ant žalios mygtukų su juodo kryžiaus žemyn,; žalią mygtuką su brūkšneliu, jei norite nutolinti; arba žalių rodyklių gretimoms žemėlapius.


METAR-TAF: